Time;durP1;ratioP1;P1;durP2;ratioP2;P2;SDS_P1;SDS_P2;PMS_P1;PMS_P2;Temp;Humidity;BMP_temperature;BMP_pressure;BME280_temperature;BME280_humidity;BME280_pressure;Samples;Min_cycle;Max_cycle;Signal;HPM_P1;HPM_P2
2021/03/30 00:00:39;;;;;;;2.85;0.70;;;24.10;54.40;;;;;;5222591;28;20037;-77
2021/03/30 00:03:10;;;;;;;1.27;0.40;;;24.10;54.60;;;;;;5212125;28;20392;-77
2021/03/30 00:05:41;;;;;;;4.18;0.80;;;24.00;54.80;;;;;;5215908;28;20017;-79
2021/03/30 00:08:13;;;;;;;1.30;0.60;;;24.00;54.40;;;;;;5184277;28;20021;-80
2021/03/30 00:10:44;;;;;;;1.75;0.50;;;24.10;54.40;;;;;;5186918;28;20088;-77
2021/03/30 00:13:14;;;;;;;3.50;0.60;;;23.90;54.70;;;;;;5199564;28;20033;-77
2021/03/30 00:15:45;;;;;;;5.97;0.50;;;23.90;55.00;;;;;;5204055;28;20092;-78
2021/03/30 00:18:15;;;;;;;4.50;0.98;;;23.60;55.30;;;;;;5219181;28;20147;-78
2021/03/30 00:20:46;;;;;;;2.35;0.50;;;23.50;55.90;;;;;;5207279;28;20025;-78
2021/03/30 00:23:16;;;;;;;2.40;0.45;;;23.30;56.60;;;;;;5201718;28;20512;-77
2021/03/30 00:25:47;;;;;;;3.35;0.80;;;23.10;56.90;;;;;;5194415;28;20084;-78
2021/03/30 00:28:17;;;;;;;5.43;0.50;;;23.00;57.30;;;;;;5208563;28;20044;-79
2021/03/30 00:30:48;;;;;;;2.33;0.65;;;22.80;58.10;;;;;;5203785;28;20029;-79
2021/03/30 00:33:19;;;;;;;3.42;0.60;;;22.70;58.90;;;;;;5215992;28;20404;-78
2021/03/30 00:35:49;;;;;;;2.30;0.70;;;22.60;59.10;;;;;;5208654;28;20036;-78
2021/03/30 00:38:20;;;;;;;1.38;0.50;;;22.50;59.50;;;;;;5223981;28;20513;-77
2021/03/30 00:40:52;;;;;;;1.40;0.50;;;22.40;59.60;;;;;;5221096;28;20033;-79
2021/03/30 00:43:22;;;;;;;5.68;0.40;;;22.30;60.20;;;;;;5177122;28;20418;-77
2021/03/30 00:45:53;;;;;;;5.70;0.88;;;22.20;60.90;;;;;;5205066;28;20041;-78
2021/03/30 00:48:25;;;;;;;2.03;0.50;;;22.20;60.90;;;;;;5204481;28;20034;-78
2021/03/30 00:50:55;;;;;;;3.97;0.50;;;22.10;61.10;;;;;;5188845;28;20044;-78
2021/03/30 00:53:26;;;;;;;1.63;0.50;;;22.00;61.00;;;;;;5186838;28;20029;-78
2021/03/30 00:55:57;;;;;;;1.85;0.60;;;22.10;61.50;;;;;;5221397;28;20585;-78
2021/03/30 00:58:27;;;;;;;6.65;0.60;;;22.00;61.40;;;;;;5211291;28;20112;-78
2021/03/30 01:00:58;;;;;;;2.85;0.70;;;22.00;61.40;;;;;;5202566;28;20387;-78
2021/03/30 01:03:28;;;;;;;2.03;0.60;;;22.00;61.70;;;;;;5196081;28;20017;-77
2021/03/30 01:05:59;;;;;;;1.33;0.40;;;22.00;61.70;;;;;;5190663;28;20034;-78
2021/03/30 01:09:00;;;;;;;2.97;0.57;;;21.90;61.80;;;;;;5213512;28;20042;-77
2021/03/30 01:11:59;;;;;;;3.65;0.65;;;21.90;61.90;;;;;;5208754;28;20029;-78
2021/03/30 01:14:46;;;;;;;4.07;0.68;;;21.90;62.00;;;;;;5206932;28;20067;-76
2021/03/30 01:17:29;;;;;;;1.00;0.50;;;21.90;62.10;;;;;;5210609;28;20392;-77
2021/03/30 01:20:55;;;;;;;2.78;0.60;;;21.90;62.00;;;;;;5217816;28;20133;-78
2021/03/30 01:23:38;;;;;;;2.00;0.50;;;21.90;62.50;;;;;;5165826;28;20095;-79
2021/03/30 01:26:28;;;;;;;3.28;0.50;;;21.80;62.10;;;;;;5208589;28;20091;-78
2021/03/30 01:29:24;;;;;;;8.13;0.60;;;21.90;62.70;;;;;;5220261;28;20110;-77
2021/03/30 01:31:59;;;;;;;6.28;0.70;;;21.80;62.80;;;;;;5190880;28;20076;-78
2021/03/30 01:34:30;;;;;;;2.03;0.40;;;21.80;63.00;;;;;;5204904;28;20064;-78
2021/03/30 01:37:00;;;;;;;5.50;0.63;;;21.80;63.10;;;;;;5200126;28;20464;-78
2021/03/30 01:39:31;;;;;;;3.95;0.60;;;21.80;62.70;;;;;;5208499;28;20030;-78
2021/03/30 01:42:02;;;;;;;5.25;0.47;;;21.80;62.80;;;;;;5190672;28;20061;-78
2021/03/30 01:44:32;;;;;;;7.43;0.75;;;21.80;62.90;;;;;;5207241;28;20017;-79
2021/03/30 01:47:03;;;;;;;6.20;0.80;;;21.80;63.00;;;;;;5223099;28;20477;-78
2021/03/30 01:49:34;;;;;;;6.13;0.60;;;21.80;62.90;;;;;;5205743;28;20098;-77
2021/03/30 01:52:06;;;;;;;10.20;0.65;;;21.80;62.90;;;;;;5211002;28;20044;-77
2021/03/30 01:54:36;;;;;;;6.30;0.63;;;21.90;62.90;;;;;;5193181;28;20517;-78
2021/03/30 01:57:07;;;;;;;6.10;0.60;;;21.80;63.00;;;;;;5177953;28;20022;-78
2021/03/30 01:59:39;;;;;;;3.05;0.70;;;21.80;62.60;;;;;;5217791;28;20017;-77
2021/03/30 02:02:10;;;;;;;4.05;0.52;;;21.80;62.00;;;;;;5220412;28;20056;-78
2021/03/30 02:04:40;;;;;;;2.50;0.65;;;21.70;61.50;;;;;;5208620;28;20017;-77
2021/03/30 02:07:13;;;;;;;3.13;0.40;;;21.70;61.20;;;;;;5213958;28;20549;-78
2021/03/30 02:09:48;;;;;;;0.68;0.38;;;21.70;61.20;;;;;;5209961;28;20048;-79
2021/03/30 02:12:20;;;;;;;1.15;0.40;;;21.70;60.90;;;;;;5187475;28;20444;-77
2021/03/30 02:14:50;;;;;;;3.13;0.50;;;21.70;60.70;;;;;;5222169;28;20025;-78
2021/03/30 02:17:24;;;;;;;0.70;0.43;;;21.70;60.20;;;;;;5182960;28;20496;-76
2021/03/30 02:20:00;;;;;;;2.30;0.50;;;21.70;60.30;;;;;;5225445;28;20029;-79
2021/03/30 02:22:38;;;;;;;1.40;0.40;;;21.70;60.00;;;;;;5214101;28;20483;-78
2021/03/30 02:25:08;;;;;;;1.10;0.43;;;21.70;59.90;;;;;;5205298;28;20506;-77
2021/03/30 02:27:40;;;;;;;3.13;0.50;;;21.70;59.70;;;;;;5195088;28;20024;-80
2021/03/30 02:30:17;;;;;;;1.95;0.40;;;21.70;59.10;;;;;;5215889;28;20029;-78
2021/03/30 02:32:47;;;;;;;1.85;0.50;;;21.70;59.40;;;;;;5221662;22;20060;-75
2021/03/30 02:35:18;;;;;;;0.65;0.35;;;21.70;59.40;;;;;;5201844;28;20025;-75
2021/03/30 02:37:49;;;;;;;0.55;0.45;;;21.70;58.80;;;;;;5205930;28;20029;-75
2021/03/30 02:40:21;;;;;;;2.28;0.40;;;21.70;59.00;;;;;;5187422;28;20042;-75
2021/03/30 02:42:52;;;;;;;1.00;0.50;;;21.70;58.70;;;;;;5186586;28;20017;-75
2021/03/30 02:45:23;;;;;;;0.70;0.40;;;21.70;58.60;;;;;;5190504;28;20024;-75
2021/03/30 02:47:57;;;;;;;3.03;0.60;;;21.60;58.30;;;;;;5194839;28;20147;-75
2021/03/30 02:50:28;;;;;;;1.73;0.50;;;21.70;58.30;;;;;;5205565;28;20026;-75
2021/03/30 02:52:58;;;;;;;0.90;0.45;;;21.60;58.40;;;;;;5220943;28;20029;-75
2021/03/30 02:55:33;;;;;;;0.88;0.47;;;21.70;57.90;;;;;;5210595;28;20487;-75
2021/03/30 02:58:04;;;;;;;1.45;0.50;;;21.60;57.80;;;;;;5197750;28;20024;-76
2021/03/30 03:00:38;;;;;;;0.40;0.40;;;21.70;57.90;;;;;;5187949;28;20507;-75
2021/03/30 03:03:10;;;;;;;1.55;0.50;;;21.70;57.80;;;;;;5212036;28;20013;-75
2021/03/30 03:05:43;;;;;;;0.70;0.40;;;21.70;57.90;;;;;;5191439;28;20021;-75
2021/03/30 03:08:13;;;;;;;0.70;0.40;;;21.70;57.60;;;;;;5191804;28;20295;-75
2021/03/30 03:10:44;;;;;;;0.70;0.38;;;21.60;57.80;;;;;;5179711;28;20060;-75
2021/03/30 03:13:14;;;;;;;0.90;0.40;;;21.70;57.60;;;;;;5205371;28;20053;-75
2021/03/30 03:15:45;;;;;;;0.60;0.40;;;21.60;58.10;;;;;;5217020;28;20037;-75
2021/03/30 03:18:16;;;;;;;1.23;0.40;;;21.60;58.10;;;;;;5187221;28;20033;-75
2021/03/30 03:20:47;;;;;;;0.47;0.28;;;21.70;58.00;;;;;;5194013;28;20025;-75
2021/03/30 03:23:17;;;;;;;1.10;0.40;;;21.60;58.50;;;;;;5205115;28;20048;-75
2021/03/30 03:25:48;;;;;;;0.85;0.38;;;21.60;58.30;;;;;;5202985;28;20060;-75
2021/03/30 03:28:18;;;;;;;0.82;0.43;;;21.60;58.50;;;;;;5203621;28;20049;-75
2021/03/30 03:30:49;;;;;;;0.65;0.40;;;21.60;58.50;;;;;;5186302;28;20091;-76
2021/03/30 03:33:20;;;;;;;1.80;0.40;;;21.60;58.40;;;;;;5186874;28;20045;-75
2021/03/30 03:36:05;;;;;;;0.90;0.40;;;21.60;58.40;;;;;;5191511;28;20029;-75
2021/03/30 03:38:43;;;;;;;0.57;0.40;;;21.60;58.50;;;;;;5210674;28;20091;-75
2021/03/30 03:41:14;;;;;;;0.75;0.40;;;21.60;58.30;;;;;;5203927;28;20022;-76
2021/03/30 03:43:45;;;;;;;0.90;0.40;;;21.60;58.30;;;;;;5203722;28;20025;-76
2021/03/30 03:46:16;;;;;;;0.80;0.40;;;21.60;58.20;;;;;;5203087;28;20523;-75
2021/03/30 03:48:47;;;;;;;0.52;0.40;;;21.50;58.30;;;;;;5192392;28;20380;-76
2021/03/30 03:51:17;;;;;;;0.77;0.40;;;21.60;58.30;;;;;;5189401;28;20063;-75
2021/03/30 03:53:49;;;;;;;0.30;0.30;;;21.50;58.20;;;;;;5203705;28;20484;-76
2021/03/30 03:56:23;;;;;;;0.63;0.40;;;21.60;57.80;;;;;;5187368;28;20118;-75
2021/03/30 03:58:57;;;;;;;1.00;0.30;;;21.60;57.70;;;;;;5212631;28;20025;-75
2021/03/30 04:02:10;;;;;;;0.60;0.40;;;21.60;57.60;;;;;;5188721;28;20380;-75
2021/03/30 04:04:52;;;;;;;0.63;0.30;;;21.60;57.90;;;;;;5218833;28;20033;-75
2021/03/30 04:07:24;;;;;;;1.90;0.47;;;21.60;58.10;;;;;;5204090;28;20395;-76
2021/03/30 04:09:56;;;;;;;1.33;0.40;;;21.60;58.00;;;;;;5209577;28;20079;-75
2021/03/30 04:12:29;;;;;;;1.30;0.40;;;21.60;57.70;;;;;;5190530;28;20028;-75
2021/03/30 04:15:00;;;;;;;0.30;0.30;;;21.60;57.70;;;;;;5217170;28;20032;-76
2021/03/30 04:17:30;;;;;;;2.40;0.35;;;21.50;57.70;;;;;;5201775;28;20045;-76
2021/03/30 04:20:17;;;;;;;0.65;0.30;;;21.50;57.70;;;;;;5186016;28;20484;-75
2021/03/30 04:22:53;;;;;;;0.70;0.45;;;21.50;57.80;;;;;;5186692;28;20033;-75
2021/03/30 04:25:24;;;;;;;1.38;0.40;;;21.60;57.60;;;;;;5204967;28;20025;-75
2021/03/30 04:27:54;;;;;;;0.50;0.32;;;21.60;57.70;;;;;;5196424;28;20070;-75
2021/03/30 04:30:25;;;;;;;0.68;0.40;;;21.50;57.70;;;;;;5208767;28;20033;-75
2021/03/30 04:32:56;;;;;;;0.50;0.30;;;21.60;57.60;;;;;;5178498;28;20048;-75
2021/03/30 04:35:26;;;;;;;0.70;0.40;;;21.60;57.50;;;;;;5207153;28;20037;-75
2021/03/30 04:37:57;;;;;;;2.40;0.30;;;21.60;57.60;;;;;;5207191;28;20033;-75
2021/03/30 04:40:27;;;;;;;0.65;0.40;;;21.60;57.70;;;;;;5211468;28;20384;-76
2021/03/30 04:42:58;;;;;;;0.35;0.30;;;21.60;57.50;;;;;;5200863;28;20495;-75
2021/03/30 04:45:28;;;;;;;1.50;0.30;;;21.60;57.50;;;;;;5208797;28;20041;-75
2021/03/30 04:47:59;;;;;;;0.40;0.35;;;21.60;57.40;;;;;;5216346;28;20036;-75
2021/03/30 04:50:29;;;;;;;0.77;0.32;;;21.50;57.60;;;;;;5202420;28;20025;-75
2021/03/30 04:53:00;;;;;;;1.23;0.40;;;21.60;57.60;;;;;;5198195;28;20028;-75
2021/03/30 04:55:31;;;;;;;0.77;0.30;;;21.50;57.20;;;;;;5219271;28;20473;-76
2021/03/30 04:58:01;;;;;;;0.57;0.30;;;21.50;57.80;;;;;;5192450;28;20044;-75
2021/03/30 05:00:32;;;;;;;0.40;0.30;;;21.60;57.30;;;;;;5207018;28;20104;-75
2021/03/30 05:03:02;;;;;;;0.50;0.38;;;21.60;57.60;;;;;;5193071;28;20020;-75
2021/03/30 05:05:33;;;;;;;0.50;0.40;;;21.60;58.10;;;;;;5213793;28;20032;-76
2021/03/30 05:08:04;;;;;;;1.08;0.40;;;21.60;57.50;;;;;;5190406;28;20107;-75
2021/03/30 05:10:34;;;;;;;0.47;0.20;;;21.60;57.70;;;;;;5190783;28;20041;-75
2021/03/30 05:13:05;;;;;;;0.70;0.35;;;21.60;57.50;;;;;;5201871;28;20025;-74
2021/03/30 05:15:36;;;;;;;0.85;0.38;;;21.60;57.20;;;;;;5189388;28;20148;-75
2021/03/30 05:18:06;;;;;;;0.90;0.40;;;21.60;57.10;;;;;;5193118;28;20040;-75
2021/03/30 05:20:37;;;;;;;0.85;0.40;;;21.60;56.80;;;;;;5194540;28;20372;-75
2021/03/30 05:23:07;;;;;;;6.97;0.55;;;21.70;57.10;;;;;;5203150;28;20502;-75
2021/03/30 05:25:38;;;;;;;10.15;0.52;;;21.70;58.30;;;;;;5189773;28;20033;-75
2021/03/30 05:28:08;;;;;;;11.00;0.82;;;21.70;58.70;;;;;;5206748;28;20068;-75
2021/03/30 05:30:39;;;;;;;4.60;0.57;;;21.70;59.20;;;;;;5195367;28;20048;-75
2021/03/30 05:33:09;;;;;;;11.13;0.98;;;21.70;59.00;;;;;;5191761;28;20037;-76
2021/03/30 05:35:40;;;;;;;10.30;0.85;;;21.70;59.40;;;;;;5205090;28;20515;-76
2021/03/30 05:38:11;;;;;;;15.35;0.88;;;21.70;59.30;;;;;;5178097;28;20068;-75
2021/03/30 05:40:41;;;;;;;11.82;0.60;;;21.70;59.40;;;;;;5212798;28;20024;-75
2021/03/30 05:43:12;;;;;;;8.85;0.50;;;21.70;59.30;;;;;;5206138;28;20026;-75
2021/03/30 05:45:42;;;;;;;2.97;0.50;;;21.70;59.40;;;;;;5205366;28;20033;-75
2021/03/30 05:48:15;;;;;;;6.68;0.60;;;21.70;59.20;;;;;;5192888;28;20162;-74
2021/03/30 05:50:45;;;;;;;4.97;0.55;;;21.60;59.30;;;;;;5193397;28;20028;-74
2021/03/30 05:53:16;;;;;;;3.55;0.52;;;21.60;60.00;;;;;;5201548;28;20480;-74
2021/03/30 05:55:50;;;;;;;2.83;0.40;;;21.60;59.50;;;;;;5199024;28;20033;-75
2021/03/30 05:58:20;;;;;;;4.32;0.40;;;21.50;59.50;;;;;;5200659;28;20088;-75
2021/03/30 06:00:51;;;;;;;2.88;0.47;;;21.40;59.60;;;;;;5208554;28;20064;-75
2021/03/30 06:03:23;;;;;;;4.38;0.40;;;21.50;59.50;;;;;;5209135;28;20120;-75
2021/03/30 06:05:54;;;;;;;6.15;0.40;;;21.50;59.70;;;;;;5225821;28;20025;-74
2021/03/30 06:08:27;;;;;;;3.10;0.75;;;21.50;59.80;;;;;;5196245;28;20020;-75
2021/03/30 06:11:06;;;;;;;0.85;0.50;;;21.40;60.70;;;;;;5197456;28;20166;-74
2021/03/30 06:13:52;;;;;;;5.25;0.70;;;21.50;59.00;;;;;;5180927;28;20029;-73
2021/03/30 06:16:33;;;;;;;4.88;0.55;;;21.50;59.80;;;;;;5217642;28;20037;-74
2021/03/30 06:19:07;;;;;;;0.80;0.60;;;21.50;59.60;;;;;;5220578;28;20044;-74
2021/03/30 06:21:56;;;;;;;2.33;0.75;;;21.50;59.70;;;;;;5207085;28;20056;-74
2021/03/30 06:24:33;;;;;;;4.53;0.77;;;21.40;59.00;;;;;;5215005;28;20029;-75
2021/03/30 06:27:03;;;;;;;2.50;0.70;;;21.40;59.10;;;;;;5207712;28;20021;-75
2021/03/30 06:29:38;;;;;;;2.33;0.70;;;21.50;58.20;;;;;;5224501;28;20127;-75
2021/03/30 06:32:11;;;;;;;3.80;0.90;;;21.40;57.90;;;;;;5217733;28;20026;-75
2021/03/30 06:34:43;;;;;;;7.03;1.05;;;21.40;57.60;;;;;;5209687;28;20029;-76
2021/03/30 06:37:26;;;;;;;1.52;0.65;;;21.40;57.40;;;;;;5188491;28;20565;-76
2021/03/30 06:39:58;;;;;;;2.95;0.70;;;21.40;57.50;;;;;;5205416;28;20101;-75
2021/03/30 06:43:13;;;;;;;1.75;0.88;;;21.40;57.40;;;;;;5202172;28;20071;-75
2021/03/30 06:45:29;;;;;;;6.40;0.90;;;21.40;57.20;;;;;;5189928;28;20067;-75
2021/03/30 06:48:00;;;;;;;3.10;0.82;;;21.40;57.40;;;;;;5197155;28;20033;-75
2021/03/30 06:50:36;;;;;;;8.48;1.10;;;21.50;57.40;;;;;;5202799;28;20085;-75
2021/03/30 06:53:12;;;;;;;7.93;1.08;;;21.50;57.50;;;;;;5195574;28;20480;-76
2021/03/30 06:55:49;;;;;;;2.38;1.10;;;21.60;57.20;;;;;;5188122;28;20018;-76
2021/03/30 06:58:21;;;;;;;7.70;1.35;;;21.60;57.10;;;;;;5218095;28;20028;-75
2021/03/30 07:00:52;;;;;;;6.18;0.98;;;21.50;57.00;;;;;;5203096;28;20037;-75
2021/03/30 07:03:23;;;;;;;4.43;1.20;;;21.50;56.90;;;;;;5211820;28;20017;-75
2021/03/30 07:05:53;;;;;;;4.18;2.17;;;21.50;56.80;;;;;;5218647;28;20025;-75
2021/03/30 07:08:24;;;;;;;4.05;1.85;;;21.50;56.70;;;;;;5173142;28;20025;-75
2021/03/30 07:10:55;;;;;;;3.45;1.73;;;21.50;56.80;;;;;;5212087;28;20032;-75
2021/03/30 07:13:26;;;;;;;3.30;1.50;;;21.50;56.40;;;;;;5183814;28;20248;-75
2021/03/30 07:16:00;;;;;;;4.90;1.38;;;21.50;56.50;;;;;;5215275;28;20107;-75
2021/03/30 07:18:35;;;;;;;8.98;2.05;;;21.50;56.40;;;;;;5206928;28;20387;-75
2021/03/30 07:21:27;;;;;;;4.88;2.13;;;21.50;56.40;;;;;;5207691;28;20021;-75
2021/03/30 07:23:58;;;;;;;4.68;1.88;;;21.50;56.20;;;;;;5206731;28;20029;-76
2021/03/30 07:26:39;;;;;;;4.18;1.70;;;21.50;56.20;;;;;;5205230;28;20020;-75
2021/03/30 07:29:23;;;;;;;5.75;1.92;;;21.50;56.30;;;;;;5204738;28;20036;-75
2021/03/30 07:32:05;;;;;;;6.45;2.10;;;21.50;56.30;;;;;;5205449;28;20060;-76
2021/03/30 07:35:02;;;;;;;6.18;2.45;;;21.50;56.10;;;;;;5204139;28;20029;-76
2021/03/30 07:37:34;;;;;;;5.90;2.15;;;21.50;56.20;;;;;;5205992;28;20115;-75
2021/03/30 07:40:07;;;;;;;4.88;1.92;;;21.50;56.20;;;;;;5222153;28;20406;-76
2021/03/30 07:42:39;;;;;;;2.47;1.50;;;21.50;56.00;;;;;;5221710;28;20029;-75
2021/03/30 07:45:11;;;;;;;3.47;1.80;;;21.50;56.60;;;;;;5194631;28;20443;-76
2021/03/30 07:47:41;;;;;;;4.43;2.28;;;21.50;56.20;;;;;;5206270;28;20028;-75
2021/03/30 07:50:13;;;;;;;5.00;1.90;;;21.50;56.00;;;;;;5223575;28;20440;-75
2021/03/30 07:52:49;;;;;;;4.10;2.00;;;21.50;55.90;;;;;;5196398;28;20090;-76
2021/03/30 07:55:29;;;;;;;4.15;1.80;;;21.50;56.00;;;;;;5210547;28;20361;-76
2021/03/30 07:58:09;;;;;;;4.30;1.83;;;21.40;56.00;;;;;;5219238;28;20408;-75
2021/03/30 08:00:41;;;;;;;3.67;1.60;;;21.50;55.80;;;;;;5215082;28;20500;-76
2021/03/30 08:03:13;;;;;;;6.10;3.53;;;21.50;55.90;;;;;;5214033;28;20125;-75
2021/03/30 08:05:44;;;;;;;7.55;3.50;;;21.50;55.60;;;;;;5193732;28;20427;-75
2021/03/30 08:08:22;;;;;;;5.68;3.00;;;21.50;55.70;;;;;;5217127;28;20048;-75
2021/03/30 08:10:53;;;;;;;9.48;3.03;;;21.40;55.60;;;;;;5201248;28;20181;-75
2021/03/30 08:13:27;;;;;;;4.45;2.58;;;21.40;55.80;;;;;;5219646;28;20033;-75
2021/03/30 08:16:06;;;;;;;8.95;2.42;;;21.40;55.70;;;;;;5211530;28;20036;-76
2021/03/30 08:18:41;;;;;;;3.33;2.03;;;21.40;55.50;;;;;;5195110;28;20029;-76
2021/03/30 08:21:20;;;;;;;6.93;2.10;;;21.40;55.60;;;;;;5212841;28;20036;-76
2021/03/30 08:23:55;;;;;;;5.32;1.90;;;21.40;55.60;;;;;;5217016;28;20021;-77
2021/03/30 08:26:29;;;;;;;7.00;1.80;;;21.40;56.20;;;;;;5223873;28;20068;-76
2021/03/30 08:29:05;;;;;;;3.20;1.70;;;21.50;56.20;;;;;;5206440;28;20272;-76
2021/03/30 08:31:43;;;;;;;4.18;1.55;;;21.50;56.50;;;;;;5208367;28;20095;-77
2021/03/30 08:34:16;;;;;;;5.63;1.50;;;21.50;55.90;;;;;;5228342;22;20061;-78
2021/03/30 08:36:49;;;;;;;3.22;1.80;;;21.50;56.30;;;;;;5212455;28;20023;-78
2021/03/30 08:39:20;;;;;;;4.93;1.70;;;21.60;56.00;;;;;;5227231;28;20029;-79
2021/03/30 08:41:54;;;;;;;5.95;1.50;;;21.50;56.10;;;;;;5227191;28;20426;-79
2021/03/30 08:44:38;;;;;;;4.38;1.60;;;21.50;56.10;;;;;;5217136;28;20049;-78
2021/03/30 08:47:09;;;;;;;5.22;1.40;;;21.50;56.20;;;;;;5218899;28;20036;-79
2021/03/30 08:49:43;;;;;;;7.13;1.77;;;21.60;57.20;;;;;;5194251;28;20083;-78
2021/03/30 08:52:14;;;;;;;8.77;1.50;;;21.60;56.80;;;;;;5211358;28;20017;-78
2021/03/30 08:54:54;;;;;;;13.82;2.15;;;21.60;57.00;;;;;;5213989;28;20075;-79
2021/03/30 08:57:35;;;;;;;15.27;2.55;;;21.60;56.90;;;;;;5228384;28;20029;-77
2021/03/30 09:00:08;;;;;;;8.70;2.10;;;21.70;57.00;;;;;;5211781;28;20021;-78
2021/03/30 09:02:39;;;;;;;11.23;2.58;;;21.70;57.10;;;;;;5211155;28;20025;-78
2021/03/30 09:05:14;;;;;;;22.08;4.18;;;21.70;57.20;;;;;;5218125;28;20396;-78
2021/03/30 09:07:46;;;;;;;19.08;2.88;;;21.70;61.40;;;;;;5199260;28;20108;-78
2021/03/30 09:10:16;;;;;;;14.98;2.70;;;21.80;61.30;;;;;;5200276;28;20032;-79
2021/03/30 09:12:47;;;;;;;20.30;3.70;;;21.80;60.70;;;;;;5191689;28;20513;-79
2021/03/30 09:15:17;;;;;;;13.75;2.90;;;21.70;60.10;;;;;;5194401;28;20483;-79
2021/03/30 09:17:58;;;;;;;15.88;2.88;;;21.80;59.80;;;;;;5207490;28;20028;-79
2021/03/30 09:20:30;;;;;;;9.93;2.50;;;21.80;60.10;;;;;;5209798;28;20094;-78
2021/03/30 09:23:05;;;;;;;9.52;2.80;;;21.80;59.80;;;;;;5220480;28;20074;-79
2021/03/30 09:25:39;;;;;;;11.63;2.65;;;21.80;59.90;;;;;;5216211;28;20032;-78
2021/03/30 09:28:23;;;;;;;11.32;2.80;;;21.80;60.10;;;;;;5208505;28;20125;-78
2021/03/30 09:30:54;;;;;;;15.07;2.65;;;21.80;60.10;;;;;;5209009;28;20044;-78
2021/03/30 09:33:24;;;;;;;8.48;2.42;;;21.70;60.20;;;;;;5210640;28;20108;-79
2021/03/30 09:35:55;;;;;;;13.43;2.75;;;21.80;60.10;;;;;;5220419;28;20090;-80
2021/03/30 09:38:25;;;;;;;15.13;2.50;;;21.80;60.20;;;;;;5230088;28;20112;-77
2021/03/30 09:40:56;;;;;;;10.00;2.55;;;21.70;60.40;;;;;;5198397;28;20036;-78
2021/03/30 09:43:27;;;;;;;9.20;2.85;;;21.80;60.40;;;;;;5219151;28;20479;-79
2021/03/30 09:45:58;;;;;;;16.55;2.90;;;21.90;60.20;;;;;;5193835;28;20056;-78
2021/03/30 09:48:28;;;;;;;8.75;2.90;;;22.70;58.90;;;;;;5180512;28;20041;-79
2021/03/30 09:50:59;;;;;;;9.05;2.78;;;23.60;54.90;;;;;;5205563;28;20035;-80
2021/03/30 09:53:40;;;;;;;9.35;3.25;;;23.20;55.80;;;;;;5192155;28;20037;-79
2021/03/30 09:56:21;;;;;;;11.23;2.97;;;22.90;56.50;;;;;;5178621;28;20078;-78
2021/03/30 09:58:55;;;;;;;7.05;2.60;;;22.60;57.10;;;;;;5209595;28;20048;-79
2021/03/30 10:01:26;;;;;;;8.60;2.55;;;22.30;57.80;;;;;;5225734;28;20033;-78
2021/03/30 10:03:56;;;;;;;9.00;3.10;;;22.30;58.00;;;;;;5185704;28;20024;-78
2021/03/30 10:06:28;;;;;;;10.15;2.80;;;22.20;58.40;;;;;;5204766;28;20055;-79
2021/03/30 10:09:08;;;;;;;9.25;3.05;;;22.10;58.90;;;;;;5219335;28;20033;-79
2021/03/30 10:11:39;;;;;;;7.38;2.92;;;22.10;58.90;;;;;;5223007;28;20089;-78
2021/03/30 10:14:16;;;;;;;6.25;3.00;;;22.10;59.50;;;;;;5204389;28;20021;-78
2021/03/30 10:16:47;;;;;;;7.50;3.10;;;22.00;59.40;;;;;;5228766;28;20495;-77
2021/03/30 10:19:18;;;;;;;7.03;3.25;;;22.00;59.20;;;;;;5230221;28;20085;-79
2021/03/30 10:21:54;;;;;;;9.57;3.30;;;22.00;59.10;;;;;;5188082;28;20051;-78
2021/03/30 10:24:24;;;;;;;9.27;3.25;;;22.00;59.10;;;;;;5207510;28;20027;-78
2021/03/30 10:27:06;;;;;;;7.85;3.00;;;21.90;59.10;;;;;;5174192;28;20028;-77
2021/03/30 10:29:39;;;;;;;8.18;2.80;;;21.90;59.10;;;;;;5173747;28;20031;-78
2021/03/30 10:32:16;;;;;;;7.80;3.15;;;21.90;59.10;;;;;;5190879;28;20048;-78
2021/03/30 10:34:47;;;;;;;5.65;2.90;;;21.80;59.00;;;;;;5192386;28;20030;-78
2021/03/30 10:37:18;;;;;;;7.00;2.97;;;21.90;59.00;;;;;;5206385;28;20026;-78
2021/03/30 10:39:48;;;;;;;4.47;3.03;;;21.90;59.30;;;;;;5188889;28;20041;-78
2021/03/30 10:42:19;;;;;;;9.13;3.03;;;21.90;58.70;;;;;;5188433;28;20017;-78
2021/03/30 10:44:57;;;;;;;5.80;3.05;;;21.80;58.70;;;;;;5191527;28;20036;-78
2021/03/30 10:47:37;;;;;;;5.55;2.90;;;21.80;58.80;;;;;;5203492;28;20044;-78
2021/03/30 10:50:09;;;;;;;3.92;2.45;;;21.80;59.00;;;;;;5203985;28;20163;-78
2021/03/30 10:52:40;;;;;;;5.38;2.80;;;21.80;59.30;;;;;;5221598;28;20410;-77
2021/03/30 10:55:15;;;;;;;8.63;2.65;;;21.80;59.40;;;;;;5208344;28;20388;-79
2021/03/30 10:57:47;;;;;;;3.67;2.40;;;21.80;59.50;;;;;;5224867;28;20026;-78
2021/03/30 11:00:18;;;;;;;4.38;2.50;;;21.80;59.60;;;;;;5206299;28;20123;-78
2021/03/30 11:02:48;;;;;;;4.30;2.60;;;21.80;59.60;;;;;;5224797;28;20013;-77
2021/03/30 11:05:19;;;;;;;4.28;2.67;;;21.90;59.50;;;;;;5208246;28;20028;-77
2021/03/30 11:07:49;;;;;;;4.47;2.88;;;21.90;59.30;;;;;;5192110;28;20507;-77
2021/03/30 11:10:22;;;;;;;6.18;2.80;;;21.90;59.20;;;;;;5207895;28;20033;-79
2021/03/30 11:12:52;;;;;;;3.55;2.70;;;21.90;59.00;;;;;;5224643;28;20430;-77
2021/03/30 11:15:23;;;;;;;6.80;2.60;;;21.80;58.80;;;;;;5207966;28;20044;-78
2021/03/30 11:17:54;;;;;;;6.07;2.88;;;21.80;59.00;;;;;;5204987;28;20037;-79
2021/03/30 11:20:25;;;;;;;8.15;2.75;;;21.80;58.90;;;;;;5188977;28;20032;-78
2021/03/30 11:22:56;;;;;;;5.63;2.88;;;21.90;58.70;;;;;;5206200;28;20029;-82
2021/03/30 11:25:27;;;;;;;5.07;2.70;;;21.90;58.70;;;;;;5211539;28;20088;-81
2021/03/30 11:28:03;;;;;;;8.18;2.55;;;21.90;58.80;;;;;;5226941;28;20104;-78
2021/03/30 11:30:51;;;;;;;6.47;2.35;;;21.80;58.90;;;;;;5210472;28;20036;-79
2021/03/30 11:33:28;;;;;;;8.98;2.53;;;21.80;58.90;;;;;;5207038;28;20037;-79
2021/03/30 11:36:04;;;;;;;3.63;2.20;;;21.90;58.90;;;;;;5194720;28;20022;-80
2021/03/30 11:38:34;;;;;;;7.32;2.53;;;21.80;58.80;;;;;;5193961;28;20022;-77
2021/03/30 11:41:05;;;;;;;5.82;2.40;;;21.80;58.80;;;;;;5193745;28;20033;-79
2021/03/30 11:43:35;;;;;;;6.20;2.38;;;21.80;59.20;;;;;;5193904;28;20483;-81
2021/03/30 11:46:06;;;;;;;7.28;2.50;;;21.80;59.20;;;;;;5195794;28;20021;-79
2021/03/30 11:48:36;;;;;;;5.88;2.10;;;21.80;58.90;;;;;;5206557;28;20617;-78
2021/03/30 11:51:07;;;;;;;9.75;2.30;;;21.80;59.00;;;;;;5181703;28;20040;-81
2021/03/30 11:53:40;;;;;;;7.65;2.38;;;21.80;58.90;;;;;;5213593;28;20038;-78
2021/03/30 11:56:11;;;;;;;7.07;2.30;;;21.80;58.80;;;;;;5199882;28;20030;-80
2021/03/30 11:58:42;;;;;;;3.13;1.90;;;21.90;58.90;;;;;;5219713;28;20036;-81
2021/03/30 12:01:12;;;;;;;8.57;2.33;;;21.80;58.90;;;;;;5191403;28;20037;-79
2021/03/30 12:03:43;;;;;;;5.15;2.35;;;21.80;58.90;;;;;;5195123;28;20033;-80
2021/03/30 12:06:13;;;;;;;5.28;2.25;;;21.80;58.90;;;;;;5209503;28;20029;-80
2021/03/30 12:08:44;;;;;;;7.30;2.20;;;21.80;58.80;;;;;;5214553;28;20033;-79
2021/03/30 12:11:15;;;;;;;4.03;2.00;;;21.80;58.80;;;;;;5217096;28;20124;-78
2021/03/30 12:13:45;;;;;;;5.57;1.95;;;21.90;58.80;;;;;;5203609;28;20104;-80
2021/03/30 12:16:15;;;;;;;2.65;2.10;;;21.90;58.50;;;;;;5194630;28;20028;-78
2021/03/30 12:18:46;;;;;;;5.07;1.90;;;21.90;58.60;;;;;;5189156;28;20124;-79
2021/03/30 12:21:17;;;;;;;5.07;1.88;;;21.90;58.70;;;;;;5189041;28;20108;-78
2021/03/30 12:23:48;;;;;;;4.97;1.80;;;21.90;58.70;;;;;;5187924;28;20032;-78
2021/03/30 12:26:18;;;;;;;4.00;1.60;;;21.90;58.60;;;;;;5186065;28;20026;-78
2021/03/30 12:28:49;;;;;;;4.38;1.80;;;21.90;58.70;;;;;;5199038;28;20029;-78
2021/03/30 12:31:19;;;;;;;3.35;1.58;;;21.90;58.80;;;;;;5224124;28;20637;-78
2021/03/30 12:33:50;;;;;;;6.50;1.58;;;21.90;58.90;;;;;;5205364;28;20061;-78
2021/03/30 12:36:20;;;;;;;4.68;1.60;;;21.90;59.00;;;;;;5194035;28;20120;-78
2021/03/30 12:38:51;;;;;;;4.03;1.55;;;21.80;58.80;;;;;;5201267;28;20207;-79
2021/03/30 12:41:22;;;;;;;2.75;1.33;;;21.90;58.90;;;;;;5211210;28;20451;-79
2021/03/30 12:43:52;;;;;;;7.65;1.60;;;21.80;58.90;;;;;;5200951;28;20025;-78
2021/03/30 12:46:23;;;;;;;2.53;1.42;;;21.80;58.90;;;;;;5206218;28;20036;-79
2021/03/30 12:48:53;;;;;;;2.83;1.20;;;21.90;58.90;;;;;;5171375;28;20029;-81
2021/03/30 12:51:24;;;;;;;3.50;1.90;;;21.80;58.90;;;;;;5208110;28;20029;-78
2021/03/30 12:53:57;;;;;;;4.43;1.20;;;21.80;58.90;;;;;;5189340;28;20031;-80
2021/03/30 12:56:27;;;;;;;3.95;1.23;;;21.90;59.00;;;;;;5220478;28;20398;-79
2021/03/30 12:58:58;;;;;;;4.78;1.58;;;21.80;58.90;;;;;;5212296;28;20032;-79
2021/03/30 13:01:31;;;;;;;3.08;1.25;;;21.90;58.90;;;;;;5187116;28;20064;-79
2021/03/30 13:04:01;;;;;;;1.90;1.30;;;21.90;59.00;;;;;;5208827;28;20022;-81
2021/03/30 13:06:32;;;;;;;2.78;1.42;;;21.90;58.80;;;;;;5210768;28;20033;-80
2021/03/30 13:09:03;;;;;;;2.72;1.30;;;21.90;58.90;;;;;;5193363;28;20073;-80
2021/03/30 13:11:34;;;;;;;2.78;1.25;;;21.90;58.80;;;;;;5205626;28;20025;-79
2021/03/30 13:14:04;;;;;;;2.70;1.08;;;21.90;58.50;;;;;;5220299;28;20036;-77
2021/03/30 13:16:35;;;;;;;2.13;1.10;;;21.90;58.60;;;;;;5214433;28;20048;-78